sensor_id;sensor_type;location;lat;lon;timestamp;P1;durP1;ratioP1;P2;durP2;ratioP2
2638;SDS011;1329;51.384;7.122;2023-02-04T00:01:49;13.30;;;3.77;;
2638;SDS011;1329;51.384;7.122;2023-02-04T00:04:22;14.43;;;3.60;;
2638;SDS011;1329;51.384;7.122;2023-02-04T00:06:49;12.63;;;3.67;;
2638;SDS011;1329;51.384;7.122;2023-02-04T00:09:20;12.10;;;3.93;;
2638;SDS011;1329;51.384;7.122;2023-02-04T00:11:47;12.80;;;3.93;;
2638;SDS011;1329;51.384;7.122;2023-02-04T00:14:25;15.00;;;4.20;;
2638;SDS011;1329;51.384;7.122;2023-02-04T00:17:03;15.13;;;3.83;;
2638;SDS011;1329;51.384;7.122;2023-02-04T00:20:32;12.07;;;3.80;;
2638;SDS011;1329;51.384;7.122;2023-02-04T00:23:24;14.97;;;4.00;;
2638;SDS011;1329;51.384;7.122;2023-02-04T00:25:57;12.47;;;3.80;;
2638;SDS011;1329;51.384;7.122;2023-02-04T00:28:28;15.83;;;4.27;;
2638;SDS011;1329;51.384;7.122;2023-02-04T00:31:04;13.20;;;4.50;;
2638;SDS011;1329;51.384;7.122;2023-02-04T00:33:45;14.30;;;3.90;;
2638;SDS011;1329;51.384;7.122;2023-02-04T00:36:27;11.27;;;3.60;;
2638;SDS011;1329;51.384;7.122;2023-02-04T00:39:00;20.60;;;4.27;;
2638;SDS011;1329;51.384;7.122;2023-02-04T00:41:34;17.67;;;4.10;;
2638;SDS011;1329;51.384;7.122;2023-02-04T00:44:30;15.93;;;3.97;;
2638;SDS011;1329;51.384;7.122;2023-02-04T00:47:00;15.63;;;4.47;;
2638;SDS011;1329;51.384;7.122;2023-02-04T00:49:40;18.13;;;3.70;;
2638;SDS011;1329;51.384;7.122;2023-02-04T00:52:39;11.37;;;4.37;;
2638;SDS011;1329;51.384;7.122;2023-02-04T00:55:11;11.87;;;4.07;;
2638;SDS011;1329;51.384;7.122;2023-02-04T00:57:42;16.57;;;4.43;;
2638;SDS011;1329;51.384;7.122;2023-02-04T01:03:28;16.77;;;3.87;;
2638;SDS011;1329;51.384;7.122;2023-02-04T01:06:08;16.00;;;4.33;;
2638;SDS011;1329;51.384;7.122;2023-02-04T01:09:05;13.00;;;3.57;;
2638;SDS011;1329;51.384;7.122;2023-02-04T01:12:01;12.97;;;3.53;;
2638;SDS011;1329;51.384;7.122;2023-02-04T01:15:07;12.73;;;3.60;;
2638;SDS011;1329;51.384;7.122;2023-02-04T01:17:37;16.00;;;4.23;;
2638;SDS011;1329;51.384;7.122;2023-02-04T01:20:06;18.43;;;4.07;;
2638;SDS011;1329;51.384;7.122;2023-02-04T01:22:44;15.23;;;4.20;;
2638;SDS011;1329;51.384;7.122;2023-02-04T01:25:38;13.73;;;3.93;;
2638;SDS011;1329;51.384;7.122;2023-02-04T01:28:05;12.77;;;3.57;;
2638;SDS011;1329;51.384;7.122;2023-02-04T01:30:46;15.53;;;3.87;;
2638;SDS011;1329;51.384;7.122;2023-02-04T01:33:25;16.33;;;4.03;;
2638;SDS011;1329;51.384;7.122;2023-02-04T01:35:57;12.60;;;3.27;;
2638;SDS011;1329;51.384;7.122;2023-02-04T01:38:50;13.47;;;3.70;;
2638;SDS011;1329;51.384;7.122;2023-02-04T01:41:28;12.30;;;3.80;;
2638;SDS011;1329;51.384;7.122;2023-02-04T01:44:24;10.77;;;3.27;;
2638;SDS011;1329;51.384;7.122;2023-02-04T01:47:20;14.83;;;3.50;;
2638;SDS011;1329;51.384;7.122;2023-02-04T01:50:16;12.30;;;3.80;;
2638;SDS011;1329;51.384;7.122;2023-02-04T01:52:54;13.93;;;4.10;;
2638;SDS011;1329;51.384;7.122;2023-02-04T01:55:29;11.70;;;3.80;;
2638;SDS011;1329;51.384;7.122;2023-02-04T01:58:04;14.53;;;4.00;;
2638;SDS011;1329;51.384;7.122;2023-02-04T02:00:48;10.17;;;3.53;;
2638;SDS011;1329;51.384;7.122;2023-02-04T02:03:15;14.97;;;3.57;;
2638;SDS011;1329;51.384;7.122;2023-02-04T02:05:43;16.17;;;4.17;;
2638;SDS011;1329;51.384;7.122;2023-02-04T02:08:13;15.23;;;4.57;;
2638;SDS011;1329;51.384;7.122;2023-02-04T02:10:43;15.70;;;4.33;;
2638;SDS011;1329;51.384;7.122;2023-02-04T02:13:13;12.93;;;3.93;;
2638;SDS011;1329;51.384;7.122;2023-02-04T02:15:43;14.27;;;4.13;;
2638;SDS011;1329;51.384;7.122;2023-02-04T02:18:11;13.13;;;3.73;;
2638;SDS011;1329;51.384;7.122;2023-02-04T02:20:38;11.93;;;3.87;;
2638;SDS011;1329;51.384;7.122;2023-02-04T02:23:10;16.07;;;4.10;;
2638;SDS011;1329;51.384;7.122;2023-02-04T02:25:47;17.17;;;3.63;;
2638;SDS011;1329;51.384;7.122;2023-02-04T02:28:15;13.57;;;3.60;;
2638;SDS011;1329;51.384;7.122;2023-02-04T02:30:45;12.83;;;3.53;;
2638;SDS011;1329;51.384;7.122;2023-02-04T02:33:17;12.53;;;3.73;;
2638;SDS011;1329;51.384;7.122;2023-02-04T02:35:45;14.30;;;3.97;;
2638;SDS011;1329;51.384;7.122;2023-02-04T02:38:13;15.47;;;3.97;;
2638;SDS011;1329;51.384;7.122;2023-02-04T02:40:41;14.27;;;4.00;;
2638;SDS011;1329;51.384;7.122;2023-02-04T02:43:10;15.77;;;3.73;;
2638;SDS011;1329;51.384;7.122;2023-02-04T02:45:42;22.33;;;4.13;;
2638;SDS011;1329;51.384;7.122;2023-02-04T02:48:10;14.40;;;3.93;;
2638;SDS011;1329;51.384;7.122;2023-02-04T02:50:37;17.80;;;4.70;;
2638;SDS011;1329;51.384;7.122;2023-02-04T02:53:05;17.20;;;4.00;;
2638;SDS011;1329;51.384;7.122;2023-02-04T02:55:37;13.63;;;3.87;;
2638;SDS011;1329;51.384;7.122;2023-02-04T02:58:04;16.43;;;3.80;;
2638;SDS011;1329;51.384;7.122;2023-02-04T03:00:38;14.77;;;3.63;;
2638;SDS011;1329;51.384;7.122;2023-02-04T03:03:05;15.60;;;3.83;;
2638;SDS011;1329;51.384;7.122;2023-02-04T03:05:37;16.47;;;4.50;;
2638;SDS011;1329;51.384;7.122;2023-02-04T03:08:07;14.03;;;3.90;;
2638;SDS011;1329;51.384;7.122;2023-02-04T03:10:36;16.53;;;4.73;;
2638;SDS011;1329;51.384;7.122;2023-02-04T03:13:03;15.83;;;3.90;;
2638;SDS011;1329;51.384;7.122;2023-02-04T03:15:32;16.37;;;4.07;;
2638;SDS011;1329;51.384;7.122;2023-02-04T03:17:59;14.73;;;3.90;;
2638;SDS011;1329;51.384;7.122;2023-02-04T03:20:28;14.00;;;3.87;;
2638;SDS011;1329;51.384;7.122;2023-02-04T03:22:56;17.63;;;4.03;;
2638;SDS011;1329;51.384;7.122;2023-02-04T03:25:24;16.50;;;3.80;;
2638;SDS011;1329;51.384;7.122;2023-02-04T03:27:52;15.33;;;3.87;;
2638;SDS011;1329;51.384;7.122;2023-02-04T03:30:19;14.47;;;3.93;;
2638;SDS011;1329;51.384;7.122;2023-02-04T03:32:48;10.80;;;3.80;;
2638;SDS011;1329;51.384;7.122;2023-02-04T03:35:16;21.57;;;4.43;;
2638;SDS011;1329;51.384;7.122;2023-02-04T03:37:43;17.10;;;4.10;;
2638;SDS011;1329;51.384;7.122;2023-02-04T03:40:10;18.03;;;4.10;;
2638;SDS011;1329;51.384;7.122;2023-02-04T03:42:38;15.40;;;4.30;;
2638;SDS011;1329;51.384;7.122;2023-02-04T03:45:05;12.50;;;3.83;;
2638;SDS011;1329;51.384;7.122;2023-02-04T03:47:33;12.07;;;3.80;;
2638;SDS011;1329;51.384;7.122;2023-02-04T03:50:02;13.37;;;4.30;;
2638;SDS011;1329;51.384;7.122;2023-02-04T03:52:30;15.80;;;4.67;;
2638;SDS011;1329;51.384;7.122;2023-02-04T03:54:57;12.27;;;4.13;;
2638;SDS011;1329;51.384;7.122;2023-02-04T03:57:23;16.03;;;4.80;;
2638;SDS011;1329;51.384;7.122;2023-02-04T03:59:50;13.83;;;4.07;;
2638;SDS011;1329;51.384;7.122;2023-02-04T04:02:17;17.40;;;4.20;;
2638;SDS011;1329;51.384;7.122;2023-02-04T04:04:44;16.47;;;3.90;;
2638;SDS011;1329;51.384;7.122;2023-02-04T04:07:13;17.90;;;4.30;;
2638;SDS011;1329;51.384;7.122;2023-02-04T04:09:39;15.70;;;3.87;;
2638;SDS011;1329;51.384;7.122;2023-02-04T04:12:06;16.77;;;3.83;;
2638;SDS011;1329;51.384;7.122;2023-02-04T04:14:33;15.77;;;3.63;;
2638;SDS011;1329;51.384;7.122;2023-02-04T04:17:01;15.40;;;3.80;;
2638;SDS011;1329;51.384;7.122;2023-02-04T04:19:27;15.13;;;3.93;;
2638;SDS011;1329;51.384;7.122;2023-02-04T04:21:56;14.30;;;3.93;;
2638;SDS011;1329;51.384;7.122;2023-02-04T04:24:24;12.93;;;3.53;;
2638;SDS011;1329;51.384;7.122;2023-02-04T04:26:51;20.90;;;4.40;;
2638;SDS011;1329;51.384;7.122;2023-02-04T04:29:18;14.00;;;3.60;;
2638;SDS011;1329;51.384;7.122;2023-02-04T04:31:45;14.50;;;3.90;;
2638;SDS011;1329;51.384;7.122;2023-02-04T04:34:12;15.03;;;3.97;;
2638;SDS011;1329;51.384;7.122;2023-02-04T04:36:39;15.33;;;4.20;;
2638;SDS011;1329;51.384;7.122;2023-02-04T04:39:06;14.57;;;4.03;;
2638;SDS011;1329;51.384;7.122;2023-02-04T04:41:34;10.53;;;3.27;;
2638;SDS011;1329;51.384;7.122;2023-02-04T04:44:01;11.00;;;3.37;;
2638;SDS011;1329;51.384;7.122;2023-02-04T04:46:28;13.47;;;3.47;;
2638;SDS011;1329;51.384;7.122;2023-02-04T04:48:55;14.57;;;4.43;;
2638;SDS011;1329;51.384;7.122;2023-02-04T04:51:22;12.57;;;3.60;;
2638;SDS011;1329;51.384;7.122;2023-02-04T04:53:49;15.57;;;3.83;;
2638;SDS011;1329;51.384;7.122;2023-02-04T04:56:16;13.43;;;3.70;;
2638;SDS011;1329;51.384;7.122;2023-02-04T04:58:44;17.83;;;4.23;;
2638;SDS011;1329;51.384;7.122;2023-02-04T05:01:11;17.73;;;4.00;;
2638;SDS011;1329;51.384;7.122;2023-02-04T05:03:38;14.20;;;4.07;;
2638;SDS011;1329;51.384;7.122;2023-02-04T05:06:05;16.03;;;4.30;;
2638;SDS011;1329;51.384;7.122;2023-02-04T05:08:33;16.00;;;4.03;;
2638;SDS011;1329;51.384;7.122;2023-02-04T05:11:00;14.30;;;4.20;;
2638;SDS011;1329;51.384;7.122;2023-02-04T05:13:28;15.73;;;3.63;;
2638;SDS011;1329;51.384;7.122;2023-02-04T05:15:57;16.83;;;3.97;;
2638;SDS011;1329;51.384;7.122;2023-02-04T05:18:24;15.50;;;3.87;;
2638;SDS011;1329;51.384;7.122;2023-02-04T05:20:51;15.30;;;4.17;;
2638;SDS011;1329;51.384;7.122;2023-02-04T05:23:18;16.57;;;3.70;;
2638;SDS011;1329;51.384;7.122;2023-02-04T05:25:45;14.27;;;4.23;;
2638;SDS011;1329;51.384;7.122;2023-02-04T05:28:11;14.37;;;3.60;;
2638;SDS011;1329;51.384;7.122;2023-02-04T05:30:38;14.77;;;3.70;;
2638;SDS011;1329;51.384;7.122;2023-02-04T05:33:07;15.37;;;3.97;;
2638;SDS011;1329;51.384;7.122;2023-02-04T05:35:33;18.57;;;4.20;;
2638;SDS011;1329;51.384;7.122;2023-02-04T05:38:00;16.17;;;4.00;;
2638;SDS011;1329;51.384;7.122;2023-02-04T05:40:27;19.67;;;3.90;;
2638;SDS011;1329;51.384;7.122;2023-02-04T05:42:54;22.10;;;4.13;;
2638;SDS011;1329;51.384;7.122;2023-02-04T05:45:21;21.00;;;4.00;;
2638;SDS011;1329;51.384;7.122;2023-02-04T05:47:48;15.23;;;3.20;;
2638;SDS011;1329;51.384;7.122;2023-02-04T05:50:17;19.83;;;4.23;;
2638;SDS011;1329;51.384;7.122;2023-02-04T05:52:44;17.43;;;3.83;;
2638;SDS011;1329;51.384;7.122;2023-02-04T05:55:11;16.67;;;3.67;;
2638;SDS011;1329;51.384;7.122;2023-02-04T05:57:38;14.23;;;3.40;;
2638;SDS011;1329;51.384;7.122;2023-02-04T06:00:05;15.80;;;4.00;;
2638;SDS011;1329;51.384;7.122;2023-02-04T06:02:34;15.70;;;4.47;;
2638;SDS011;1329;51.384;7.122;2023-02-04T06:05:01;16.80;;;4.00;;
2638;SDS011;1329;51.384;7.122;2023-02-04T06:07:29;18.43;;;4.23;;
2638;SDS011;1329;51.384;7.122;2023-02-04T06:09:56;13.00;;;3.50;;
2638;SDS011;1329;51.384;7.122;2023-02-04T06:12:23;15.67;;;4.40;;
2638;SDS011;1329;51.384;7.122;2023-02-04T06:14:50;17.07;;;4.73;;
2638;SDS011;1329;51.384;7.122;2023-02-04T06:17:17;14.83;;;4.27;;
2638;SDS011;1329;51.384;7.122;2023-02-04T06:19:44;17.67;;;4.13;;
2638;SDS011;1329;51.384;7.122;2023-02-04T06:22:11;16.63;;;4.43;;
2638;SDS011;1329;51.384;7.122;2023-02-04T06:24:39;14.27;;;3.80;;
2638;SDS011;1329;51.384;7.122;2023-02-04T06:27:06;15.90;;;4.03;;
2638;SDS011;1329;51.384;7.122;2023-02-04T06:29:33;13.27;;;4.13;;
2638;SDS011;1329;51.384;7.122;2023-02-04T06:32:00;21.30;;;4.10;;
2638;SDS011;1329;51.384;7.122;2023-02-04T06:34:27;13.07;;;3.80;;
2638;SDS011;1329;51.384;7.122;2023-02-04T06:36:54;17.03;;;4.10;;
2638;SDS011;1329;51.384;7.122;2023-02-04T06:39:21;15.07;;;4.40;;
2638;SDS011;1329;51.384;7.122;2023-02-04T06:41:49;17.30;;;4.00;;
2638;SDS011;1329;51.384;7.122;2023-02-04T06:44:16;14.53;;;3.93;;
2638;SDS011;1329;51.384;7.122;2023-02-04T06:46:43;21.23;;;5.07;;
2638;SDS011;1329;51.384;7.122;2023-02-04T06:49:10;14.23;;;3.53;;
2638;SDS011;1329;51.384;7.122;2023-02-04T06:51:37;16.37;;;3.80;;
2638;SDS011;1329;51.384;7.122;2023-02-04T06:54:04;16.17;;;4.20;;
2638;SDS011;1329;51.384;7.122;2023-02-04T06:56:31;14.50;;;4.03;;
2638;SDS011;1329;51.384;7.122;2023-02-04T06:58:59;13.40;;;3.63;;
2638;SDS011;1329;51.384;7.122;2023-02-04T07:01:26;18.77;;;4.50;;
2638;SDS011;1329;51.384;7.122;2023-02-04T07:03:53;25.70;;;10.33;;
2638;SDS011;1329;51.384;7.122;2023-02-04T07:06:20;14.83;;;5.30;;
2638;SDS011;1329;51.384;7.122;2023-02-04T07:08:47;15.40;;;4.50;;
2638;SDS011;1329;51.384;7.122;2023-02-04T07:11:14;18.37;;;4.27;;
2638;SDS011;1329;51.384;7.122;2023-02-04T07:13:41;13.07;;;4.00;;
2638;SDS011;1329;51.384;7.122;2023-02-04T07:16:09;14.67;;;3.97;;
2638;SDS011;1329;51.384;7.122;2023-02-04T07:18:37;15.77;;;3.73;;
2638;SDS011;1329;51.384;7.122;2023-02-04T07:21:03;17.77;;;4.13;;
2638;SDS011;1329;51.384;7.122;2023-02-04T07:23:30;18.00;;;4.30;;
2638;SDS011;1329;51.384;7.122;2023-02-04T07:25:57;15.17;;;4.17;;
2638;SDS011;1329;51.384;7.122;2023-02-04T07:28:24;15.00;;;4.90;;
2638;SDS011;1329;51.384;7.122;2023-02-04T07:30:51;10.50;;;4.10;;
2638;SDS011;1329;51.384;7.122;2023-02-04T07:33:20;14.90;;;4.50;;
2638;SDS011;1329;51.384;7.122;2023-02-04T07:35:46;19.57;;;4.47;;
2638;SDS011;1329;51.384;7.122;2023-02-04T07:38:13;18.30;;;5.07;;
2638;SDS011;1329;51.384;7.122;2023-02-04T07:40:40;17.10;;;4.47;;
2638;SDS011;1329;51.384;7.122;2023-02-04T07:43:07;14.10;;;4.00;;
2638;SDS011;1329;51.384;7.122;2023-02-04T07:45:34;13.43;;;4.30;;
2638;SDS011;1329;51.384;7.122;2023-02-04T07:48:01;19.23;;;5.23;;
2638;SDS011;1329;51.384;7.122;2023-02-04T07:50:29;16.83;;;5.60;;
2638;SDS011;1329;51.384;7.122;2023-02-04T07:52:56;18.07;;;5.60;;
2638;SDS011;1329;51.384;7.122;2023-02-04T07:55:23;18.33;;;6.07;;
2638;SDS011;1329;51.384;7.122;2023-02-04T07:57:49;18.90;;;6.40;;
2638;SDS011;1329;51.384;7.122;2023-02-04T08:00:16;14.47;;;5.87;;
2638;SDS011;1329;51.384;7.122;2023-02-04T08:02:44;15.07;;;4.73;;
2638;SDS011;1329;51.384;7.122;2023-02-04T08:05:11;11.87;;;4.43;;
2638;SDS011;1329;51.384;7.122;2023-02-04T08:07:41;11.80;;;4.10;;
2638;SDS011;1329;51.384;7.122;2023-02-04T08:10:08;11.80;;;4.00;;
2638;SDS011;1329;51.384;7.122;2023-02-04T08:12:36;13.57;;;4.37;;
2638;SDS011;1329;51.384;7.122;2023-02-04T08:15:03;13.83;;;3.93;;
2638;SDS011;1329;51.384;7.122;2023-02-04T08:17:32;12.47;;;3.87;;
2638;SDS011;1329;51.384;7.122;2023-02-04T08:19:59;13.50;;;4.20;;
2638;SDS011;1329;51.384;7.122;2023-02-04T08:22:26;13.67;;;4.23;;
2638;SDS011;1329;51.384;7.122;2023-02-04T08:24:54;13.87;;;4.50;;
2638;SDS011;1329;51.384;7.122;2023-02-04T08:27:21;15.13;;;4.27;;
2638;SDS011;1329;51.384;7.122;2023-02-04T08:29:48;17.13;;;5.17;;
2638;SDS011;1329;51.384;7.122;2023-02-04T08:32:15;12.57;;;4.13;;
2638;SDS011;1329;51.384;7.122;2023-02-04T08:34:42;17.53;;;4.57;;
2638;SDS011;1329;51.384;7.122;2023-02-04T08:37:08;16.67;;;5.00;;
2638;SDS011;1329;51.384;7.122;2023-02-04T08:39:35;14.93;;;4.87;;
2638;SDS011;1329;51.384;7.122;2023-02-04T08:42:04;19.20;;;5.00;;
2638;SDS011;1329;51.384;7.122;2023-02-04T08:44:31;14.63;;;5.17;;
2638;SDS011;1329;51.384;7.122;2023-02-04T08:46:58;15.57;;;4.70;;
2638;SDS011;1329;51.384;7.122;2023-02-04T08:49:25;15.47;;;5.20;;
2638;SDS011;1329;51.384;7.122;2023-02-04T08:51:52;16.40;;;4.87;;
2638;SDS011;1329;51.384;7.122;2023-02-04T08:54:19;18.90;;;5.20;;
2638;SDS011;1329;51.384;7.122;2023-02-04T08:56:46;15.43;;;5.80;;
2638;SDS011;1329;51.384;7.122;2023-02-04T08:59:14;19.80;;;5.67;;
2638;SDS011;1329;51.384;7.122;2023-02-04T09:01:41;16.37;;;5.00;;
2638;SDS011;1329;51.384;7.122;2023-02-04T09:04:12;15.50;;;5.07;;
2638;SDS011;1329;51.384;7.122;2023-02-04T09:06:40;15.33;;;5.17;;
2638;SDS011;1329;51.384;7.122;2023-02-04T09:09:07;16.40;;;5.40;;
2638;SDS011;1329;51.384;7.122;2023-02-04T09:11:34;16.97;;;5.17;;
2638;SDS011;1329;51.384;7.122;2023-02-04T09:14:01;20.53;;;5.90;;
2638;SDS011;1329;51.384;7.122;2023-02-04T09:16:29;20.67;;;5.60;;
2638;SDS011;1329;51.384;7.122;2023-02-04T09:18:56;16.50;;;5.60;;
2638;SDS011;1329;51.384;7.122;2023-02-04T09:21:24;18.90;;;4.83;;
2638;SDS011;1329;51.384;7.122;2023-02-04T09:23:51;20.10;;;5.20;;
2638;SDS011;1329;51.384;7.122;2023-02-04T09:26:18;16.43;;;4.73;;
2638;SDS011;1329;51.384;7.122;2023-02-04T09:28:45;16.83;;;5.27;;
2638;SDS011;1329;51.384;7.122;2023-02-04T09:31:12;17.23;;;5.20;;
2638;SDS011;1329;51.384;7.122;2023-02-04T09:33:41;17.20;;;5.77;;
2638;SDS011;1329;51.384;7.122;2023-02-04T09:36:08;24.27;;;5.70;;
2638;SDS011;1329;51.384;7.122;2023-02-04T09:38:35;15.93;;;5.53;;
2638;SDS011;1329;51.384;7.122;2023-02-04T09:41:02;20.00;;;5.40;;
2638;SDS011;1329;51.384;7.122;2023-02-04T09:43:33;20.73;;;5.60;;
2638;SDS011;1329;51.384;7.122;2023-02-04T09:46:06;19.40;;;5.30;;
2638;SDS011;1329;51.384;7.122;2023-02-04T09:48:34;17.17;;;4.87;;
2638;SDS011;1329;51.384;7.122;2023-02-04T09:51:04;18.57;;;5.20;;
2638;SDS011;1329;51.384;7.122;2023-02-04T09:53:32;19.97;;;5.80;;
2638;SDS011;1329;51.384;7.122;2023-02-04T09:56:01;14.30;;;5.37;;
2638;SDS011;1329;51.384;7.122;2023-02-04T09:58:28;15.90;;;5.30;;
2638;SDS011;1329;51.384;7.122;2023-02-04T10:01:00;17.50;;;5.67;;
2638;SDS011;1329;51.384;7.122;2023-02-04T10:03:38;20.43;;;7.47;;
2638;SDS011;1329;51.384;7.122;2023-02-04T10:06:11;18.43;;;5.93;;
2638;SDS011;1329;51.384;7.122;2023-02-04T10:08:39;18.07;;;6.63;;
2638;SDS011;1329;51.384;7.122;2023-02-04T10:11:08;20.70;;;5.60;;
2638;SDS011;1329;51.384;7.122;2023-02-04T10:13:36;17.60;;;6.37;;
2638;SDS011;1329;51.384;7.122;2023-02-04T10:16:09;19.90;;;6.83;;
2638;SDS011;1329;51.384;7.122;2023-02-04T10:18:40;18.23;;;7.83;;
2638;SDS011;1329;51.384;7.122;2023-02-04T10:21:13;20.03;;;6.57;;
2638;SDS011;1329;51.384;7.122;2023-02-04T10:23:42;18.30;;;6.80;;
2638;SDS011;1329;51.384;7.122;2023-02-04T10:26:12;18.83;;;7.43;;
2638;SDS011;1329;51.384;7.122;2023-02-04T10:28:40;24.17;;;7.37;;
2638;SDS011;1329;51.384;7.122;2023-02-04T10:34:12;19.37;;;7.33;;
2638;SDS011;1329;51.384;7.122;2023-02-04T10:36:43;16.40;;;6.93;;
2638;SDS011;1329;51.384;7.122;2023-02-04T10:39:13;20.07;;;6.73;;
2638;SDS011;1329;51.384;7.122;2023-02-04T10:41:46;17.80;;;7.27;;
2638;SDS011;1329;51.384;7.122;2023-02-04T10:44:15;22.63;;;7.10;;
2638;SDS011;1329;51.384;7.122;2023-02-04T10:46:43;18.57;;;7.20;;
2638;SDS011;1329;51.384;7.122;2023-02-04T10:49:17;17.90;;;7.07;;
2638;SDS011;1329;51.384;7.122;2023-02-04T10:51:49;15.77;;;6.97;;
2638;SDS011;1329;51.384;7.122;2023-02-04T10:54:18;17.17;;;6.60;;
2638;SDS011;1329;51.384;7.122;2023-02-04T10:56:54;22.10;;;8.17;;
2638;SDS011;1329;51.384;7.122;2023-02-04T10:59:23;21.70;;;7.83;;
2638;SDS011;1329;51.384;7.122;2023-02-04T11:01:53;18.83;;;7.97;;
2638;SDS011;1329;51.384;7.122;2023-02-04T11:04:22;20.63;;;8.37;;
2638;SDS011;1329;51.384;7.122;2023-02-04T11:06:50;19.97;;;7.87;;
2638;SDS011;1329;51.384;7.122;2023-02-04T11:09:18;17.03;;;7.23;;
2638;SDS011;1329;51.384;7.122;2023-02-04T11:11:45;18.13;;;7.70;;
2638;SDS011;1329;51.384;7.122;2023-02-04T11:14:21;17.93;;;8.50;;
2638;SDS011;1329;51.384;7.122;2023-02-04T11:16:50;16.10;;;7.93;;
2638;SDS011;1329;51.384;7.122;2023-02-04T11:19:29;16.37;;;8.53;;
2638;SDS011;1329;51.384;7.122;2023-02-04T11:22:05;18.70;;;8.43;;
2638;SDS011;1329;51.384;7.122;2023-02-04T11:24:46;20.83;;;9.67;;
2638;SDS011;1329;51.384;7.122;2023-02-04T11:27:23;14.60;;;9.03;;
2638;SDS011;1329;51.384;7.122;2023-02-04T11:30:03;18.90;;;9.33;;
2638;SDS011;1329;51.384;7.122;2023-02-04T11:32:32;17.83;;;9.23;;
2638;SDS011;1329;51.384;7.122;2023-02-04T11:35:06;19.70;;;9.03;;
2638;SDS011;1329;51.384;7.122;2023-02-04T11:37:53;17.63;;;8.90;;
2638;SDS011;1329;51.384;7.122;2023-02-04T11:40:28;15.00;;;8.37;;
2638;SDS011;1329;51.384;7.122;2023-02-04T11:43:01;15.37;;;9.30;;
2638;SDS011;1329;51.384;7.122;2023-02-04T11:45:34;16.30;;;8.50;;
2638;SDS011;1329;51.384;7.122;2023-02-04T11:48:03;15.57;;;8.13;;
2638;SDS011;1329;51.384;7.122;2023-02-04T11:50:38;15.03;;;7.50;;
2638;SDS011;1329;51.384;7.122;2023-02-04T11:53:09;15.63;;;7.63;;
2638;SDS011;1329;51.384;7.122;2023-02-04T11:55:42;15.80;;;7.47;;
2638;SDS011;1329;51.384;7.122;2023-02-04T11:58:11;15.57;;;8.43;;
2638;SDS011;1329;51.384;7.122;2023-02-04T12:00:41;13.80;;;8.20;;
2638;SDS011;1329;51.384;7.122;2023-02-04T12:03:19;17.70;;;8.50;;
2638;SDS011;1329;51.384;7.122;2023-02-04T12:05:49;17.93;;;8.63;;
2638;SDS011;1329;51.384;7.122;2023-02-04T12:08:30;15.73;;;8.57;;
2638;SDS011;1329;51.384;7.122;2023-02-04T12:11:03;15.47;;;7.93;;
2638;SDS011;1329;51.384;7.122;2023-02-04T12:13:33;17.50;;;7.67;;
2638;SDS011;1329;51.384;7.122;2023-02-04T12:16:14;17.77;;;7.73;;
2638;SDS011;1329;51.384;7.122;2023-02-04T12:18:41;18.33;;;8.00;;
2638;SDS011;1329;51.384;7.122;2023-02-04T12:21:08;20.10;;;8.03;;
2638;SDS011;1329;51.384;7.122;2023-02-04T12:23:37;15.93;;;8.43;;
2638;SDS011;1329;51.384;7.122;2023-02-04T12:26:04;14.33;;;7.70;;
2638;SDS011;1329;51.384;7.122;2023-02-04T12:28:31;15.90;;;7.10;;
2638;SDS011;1329;51.384;7.122;2023-02-04T12:30:58;15.57;;;7.10;;
2638;SDS011;1329;51.384;7.122;2023-02-04T12:33:25;15.27;;;7.97;;
2638;SDS011;1329;51.384;7.122;2023-02-04T12:35:52;15.27;;;7.47;;
2638;SDS011;1329;51.384;7.122;2023-02-04T12:38:19;15.97;;;8.07;;
2638;SDS011;1329;51.384;7.122;2023-02-04T12:40:47;15.20;;;7.87;;
2638;SDS011;1329;51.384;7.122;2023-02-04T12:43:14;21.03;;;9.73;;
2638;SDS011;1329;51.384;7.122;2023-02-04T12:45:40;14.67;;;9.03;;
2638;SDS011;1329;51.384;7.122;2023-02-04T12:48:10;14.73;;;9.80;;
2638;SDS011;1329;51.384;7.122;2023-02-04T12:50:37;17.67;;;9.57;;
2638;SDS011;1329;51.384;7.122;2023-02-04T12:53:04;18.97;;;10.57;;
2638;SDS011;1329;51.384;7.122;2023-02-04T12:55:31;20.87;;;11.63;;
2638;SDS011;1329;51.384;7.122;2023-02-04T12:58:00;17.73;;;10.63;;
2638;SDS011;1329;51.384;7.122;2023-02-04T13:00:27;19.87;;;10.90;;
2638;SDS011;1329;51.384;7.122;2023-02-04T13:02:53;19.03;;;10.43;;
2638;SDS011;1329;51.384;7.122;2023-02-04T13:05:22;18.47;;;10.57;;
2638;SDS011;1329;51.384;7.122;2023-02-04T13:07:50;19.40;;;11.43;;
2638;SDS011;1329;51.384;7.122;2023-02-04T13:10:18;19.20;;;11.40;;
2638;SDS011;1329;51.384;7.122;2023-02-04T13:12:45;20.37;;;11.80;;
2638;SDS011;1329;51.384;7.122;2023-02-04T13:15:14;21.47;;;11.33;;
2638;SDS011;1329;51.384;7.122;2023-02-04T13:17:41;24.63;;;12.50;;
2638;SDS011;1329;51.384;7.122;2023-02-04T13:20:08;20.37;;;12.80;;
2638;SDS011;1329;51.384;7.122;2023-02-04T13:49:34;31.87;;;16.97;;
2638;SDS011;1329;51.384;7.122;2023-02-04T13:52:02;24.93;;;16.60;;
2638;SDS011;1329;51.384;7.122;2023-02-04T13:54:30;24.57;;;15.93;;
2638;SDS011;1329;51.384;7.122;2023-02-04T13:56:58;26.30;;;15.97;;
2638;SDS011;1329;51.384;7.122;2023-02-04T13:59:25;24.87;;;15.83;;
2638;SDS011;1329;51.384;7.122;2023-02-04T14:01:52;27.33;;;15.97;;
2638;SDS011;1329;51.384;7.122;2023-02-04T14:04:20;27.37;;;16.40;;
2638;SDS011;1329;51.384;7.122;2023-02-04T14:06:48;27.30;;;17.20;;
2638;SDS011;1329;51.384;7.122;2023-02-04T14:09:15;28.70;;;17.57;;
2638;SDS011;1329;51.384;7.122;2023-02-04T14:11:42;28.93;;;17.63;;
2638;SDS011;1329;51.384;7.122;2023-02-04T14:14:09;30.50;;;18.50;;
2638;SDS011;1329;51.384;7.122;2023-02-04T14:16:36;31.37;;;19.80;;
2638;SDS011;1329;51.384;7.122;2023-02-04T14:19:03;28.60;;;19.20;;
2638;SDS011;1329;51.384;7.122;2023-02-04T14:21:31;27.63;;;17.73;;
2638;SDS011;1329;51.384;7.122;2023-02-04T14:24:00;26.67;;;17.03;;
2638;SDS011;1329;51.384;7.122;2023-02-04T14:26:30;26.37;;;15.50;;
2638;SDS011;1329;51.384;7.122;2023-02-04T14:28:58;24.90;;;14.80;;
2638;SDS011;1329;51.384;7.122;2023-02-04T14:31:26;22.60;;;13.30;;
2638;SDS011;1329;51.384;7.122;2023-02-04T14:33:54;18.43;;;11.43;;
2638;SDS011;1329;51.384;7.122;2023-02-04T14:36:22;17.13;;;11.83;;
2638;SDS011;1329;51.384;7.122;2023-02-04T14:38:50;21.33;;;12.00;;
2638;SDS011;1329;51.384;7.122;2023-02-04T14:41:18;22.77;;;13.87;;
2638;SDS011;1329;51.384;7.122;2023-02-04T14:43:45;19.13;;;12.30;;
2638;SDS011;1329;51.384;7.122;2023-02-04T14:46:12;19.10;;;12.70;;
2638;SDS011;1329;51.384;7.122;2023-02-04T14:48:40;22.77;;;13.83;;
2638;SDS011;1329;51.384;7.122;2023-02-04T14:51:09;24.80;;;13.80;;
2638;SDS011;1329;51.384;7.122;2023-02-04T14:53:36;23.00;;;13.80;;
2638;SDS011;1329;51.384;7.122;2023-02-04T14:56:04;26.57;;;14.40;;
2638;SDS011;1329;51.384;7.122;2023-02-04T14:58:33;22.30;;;14.50;;
2638;SDS011;1329;51.384;7.122;2023-02-04T15:01:01;26.87;;;15.67;;
2638;SDS011;1329;51.384;7.122;2023-02-04T15:03:28;25.60;;;15.63;;
2638;SDS011;1329;51.384;7.122;2023-02-04T15:05:59;24.13;;;15.60;;
2638;SDS011;1329;51.384;7.122;2023-02-04T15:08:26;24.60;;;14.20;;
2638;SDS011;1329;51.384;7.122;2023-02-04T15:10:54;24.93;;;14.47;;
2638;SDS011;1329;51.384;7.122;2023-02-04T15:13:22;25.13;;;15.43;;
2638;SDS011;1329;51.384;7.122;2023-02-04T15:15:54;24.87;;;14.80;;
2638;SDS011;1329;51.384;7.122;2023-02-04T15:18:22;22.07;;;13.43;;
2638;SDS011;1329;51.384;7.122;2023-02-04T15:20:49;23.20;;;14.03;;
2638;SDS011;1329;51.384;7.122;2023-02-04T15:23:17;19.80;;;13.03;;
2638;SDS011;1329;51.384;7.122;2023-02-04T15:25:45;22.07;;;12.33;;
2638;SDS011;1329;51.384;7.122;2023-02-04T15:28:12;19.57;;;12.23;;
2638;SDS011;1329;51.384;7.122;2023-02-04T15:30:40;21.00;;;12.33;;
2638;SDS011;1329;51.384;7.122;2023-02-04T15:33:09;17.17;;;11.40;;
2638;SDS011;1329;51.384;7.122;2023-02-04T15:35:37;19.87;;;12.20;;
2638;SDS011;1329;51.384;7.122;2023-02-04T15:38:05;21.83;;;12.20;;
2638;SDS011;1329;51.384;7.122;2023-02-04T15:40:32;16.73;;;10.70;;
2638;SDS011;1329;51.384;7.122;2023-02-04T15:42:59;20.27;;;11.37;;
2638;SDS011;1329;51.384;7.122;2023-02-04T15:45:26;18.73;;;11.10;;
2638;SDS011;1329;51.384;7.122;2023-02-04T15:47:53;18.90;;;11.37;;